createdAt,value
2022-09-22T00:00:10.062Z,72.54
2022-09-22T00:01:18.342Z,72.42
2022-09-22T00:02:21.414Z,72.39
2022-09-22T00:03:24.734Z,72.33
2022-09-22T00:04:28.599Z,72.40
2022-09-22T00:05:31.217Z,72.81
2022-09-22T00:06:57.622Z,72.75
2022-09-22T00:08:02.169Z,72.90
2022-09-22T00:09:07.755Z,72.87
2022-09-22T00:10:10.443Z,73.14
2022-09-22T00:11:19.274Z,72.89
2022-09-22T00:12:22.197Z,72.65
2022-09-22T00:13:24.855Z,72.24
2022-09-22T00:14:28.402Z,72.59
2022-09-22T00:15:31.472Z,72.76
2022-09-22T00:16:40.095Z,72.27
2022-09-22T00:17:43.157Z,71.99
2022-09-22T00:18:45.873Z,72.08
2022-09-22T00:19:48.810Z,71.74
2022-09-22T00:20:51.581Z,72.05
2022-09-22T00:21:54.403Z,71.79
2022-09-22T00:22:57.803Z,71.99
2022-09-22T00:24:05.082Z,71.99
2022-09-22T00:25:09.060Z,72.10
2022-09-22T00:26:15.801Z,72.33
2022-09-22T00:27:18.544Z,71.86
2022-09-22T00:28:22.025Z,72.24
2022-09-22T00:29:26.955Z,72.80
2022-09-22T00:30:31.495Z,73.12
2022-09-22T00:31:34.157Z,73.45
2022-09-22T00:32:40.264Z,73.33
2022-09-22T00:33:43.781Z,73.27
2022-09-22T00:34:46.357Z,73.45
2022-09-22T00:35:58.944Z,72.99
2022-09-22T00:37:02.274Z,73.18
2022-09-22T00:38:08.346Z,73.54
2022-09-22T00:39:12.134Z,73.66
2022-09-22T00:40:15.025Z,72.96
2022-09-22T00:41:22.238Z,72.82
2022-09-22T00:42:24.833Z,73.10
2022-09-22T00:43:30.462Z,73.46
2022-09-22T00:44:39.066Z,73.90
2022-09-22T00:45:42.693Z,73.87
2022-09-22T00:46:59.019Z,74.07
2022-09-22T00:48:01.844Z,74.12
2022-09-22T00:49:06.773Z,74.18
2022-09-22T00:50:22.350Z,73.47
2022-09-22T00:51:31.091Z,73.69
2022-09-22T00:52:51.009Z,73.64
2022-09-22T00:53:56.369Z,74.05
2022-09-22T00:55:02.641Z,74.28
2022-09-22T00:56:08.521Z,74.40
2022-09-22T00:57:17.251Z,74.32
2022-09-22T00:58:35.695Z,73.98
2022-09-22T00:59:40.064Z,73.89
2022-09-22T01:00:43.333Z,74.23
2022-09-22T01:01:46.145Z,73.66
2022-09-22T01:02:52.034Z,73.95
2022-09-22T01:03:56.484Z,73.62
2022-09-22T01:04:59.441Z,73.71
2022-09-22T01:06:05.823Z,73.81
2022-09-22T01:07:09.732Z,73.79
2022-09-22T01:08:14.088Z,73.88
2022-09-22T01:09:17.703Z,74.18
2022-09-22T01:10:20.820Z,74.18
2022-09-22T01:11:25.432Z,74.11
2022-09-22T01:12:31.071Z,73.60
2022-09-22T01:13:46.109Z,73.59
2022-09-22T01:15:11.563Z,74.08
2022-09-22T01:16:42.875Z,74.12
2022-09-22T01:18:18.650Z,74.22
2022-09-22T01:20:00.937Z,74.23
2022-09-22T01:21:28.941Z,74.90
2022-09-22T01:22:34.500Z,75.63
2022-09-22T01:23:49.185Z,76.19
2022-09-22T01:25:10.400Z,76.90
2022-09-22T01:26:21.657Z,77.16
2022-09-22T01:27:33.147Z,77.37
2022-09-22T01:28:44.873Z,77.75
2022-09-22T01:30:13.580Z,78.38
2022-09-22T01:31:38.754Z,78.89
2022-09-22T01:33:23.703Z,79.22
2022-09-22T01:34:36.156Z,79.12
2022-09-22T01:35:45.324Z,79.39
2022-09-22T01:37:01.364Z,79.48
2022-09-22T01:38:27.439Z,80.03
2022-09-22T01:39:54.599Z,80.17
2022-09-22T01:41:02.974Z,80.63
2022-09-22T01:42:11.755Z,80.42
2022-09-22T01:43:19.233Z,80.47
2022-09-22T01:44:40.055Z,80.42
2022-09-22T01:45:48.402Z,80.64
2022-09-22T01:47:00.673Z,80.36
2022-09-22T01:48:26.830Z,80.24
2022-09-22T01:49:34.653Z,79.86
2022-09-22T01:50:54.296Z,80.29
2022-09-22T01:52:01.518Z,80.38
2022-09-22T01:53:10.885Z,80.32
2022-09-22T01:54:32.315Z,80.39
2022-09-22T01:55:39.720Z,80.45
2022-09-22T01:56:45.170Z,80.38
2022-09-22T01:58:08.848Z,80.34
2022-09-22T01:59:14.873Z,80.06
2022-09-22T02:00:18.285Z,79.79
2022-09-22T02:01:38.129Z,79.81
2022-09-22T02:02:52.867Z,79.75
2022-09-22T02:04:02.428Z,80.27
2022-09-22T02:05:14.683Z,80.84
2022-09-22T02:06:27.224Z,80.97
2022-09-22T02:07:38.577Z,81.11
2022-09-22T02:09:07.881Z,81.29
2022-09-22T02:10:13.638Z,81.69
2022-09-22T02:11:16.886Z,81.96
2022-09-22T02:12:20.048Z,82.14
2022-09-22T02:13:22.801Z,82.30
2022-09-22T02:14:26.292Z,82.41
2022-09-22T02:15:48.101Z,82.46
2022-09-22T02:16:51.938Z,82.48
2022-09-22T02:17:58.474Z,82.50
2022-09-22T02:19:22.728Z,82.51
2022-09-22T02:20:26.361Z,82.59
2022-09-22T02:21:29.096Z,82.67
2022-09-22T02:22:32.421Z,82.80
2022-09-22T02:23:36.047Z,82.85
2022-09-22T02:24:44.498Z,83.08
2022-09-22T02:25:48.946Z,82.92
2022-09-22T02:26:52.166Z,82.76
2022-09-22T02:27:57.132Z,82.83
2022-09-22T02:29:05.145Z,82.86
2022-09-22T02:30:12.215Z,83.00
2022-09-22T02:31:20.468Z,83.17
2022-09-22T02:32:24.813Z,83.21
2022-09-22T02:33:29.640Z,83.21
2022-09-22T02:34:32.538Z,83.26
2022-09-22T02:35:40.050Z,83.40
2022-09-22T02:36:50.850Z,83.55
2022-09-22T02:38:04.668Z,83.33
2022-09-22T02:39:11.776Z,83.47
2022-09-22T02:40:30.845Z,83.51
2022-09-22T02:41:56.510Z,83.67
2022-09-22T02:43:20.388Z,83.79
2022-09-22T02:44:50.481Z,83.51
2022-09-22T02:45:58.981Z,83.40
2022-09-22T02:47:17.562Z,83.00
2022-09-22T02:48:25.511Z,82.97
2022-09-22T02:49:28.864Z,83.10
2022-09-22T02:50:33.230Z,83.06
2022-09-22T02:51:36.625Z,82.94
2022-09-22T02:52:40.452Z,83.08
2022-09-22T02:53:43.076Z,83.13
2022-09-22T02:54:45.716Z,82.98
2022-09-22T02:55:49.263Z,82.92
2022-09-22T02:56:52.039Z,82.12
2022-09-22T02:57:54.859Z,81.83
2022-09-22T02:58:58.549Z,81.89
2022-09-22T03:00:01.822Z,82.25
2022-09-22T03:01:04.662Z,82.53
2022-09-22T03:02:07.461Z,82.70
2022-09-22T03:03:11.856Z,82.77
2022-09-22T03:04:14.662Z,82.95
2022-09-22T03:05:17.387Z,82.65
2022-09-22T03:06:20.127Z,82.70
2022-09-22T03:07:23.102Z,82.78
2022-09-22T03:08:26.102Z,83.04
2022-09-22T03:09:28.959Z,83.30
2022-09-22T03:10:31.651Z,83.39
2022-09-22T03:11:34.307Z,83.42
2022-09-22T03:13:02.290Z,83.47
2022-09-22T03:14:05.552Z,83.69
2022-09-22T03:15:12.220Z,83.71
2022-09-22T03:16:15.097Z,84.03
2022-09-22T03:17:17.953Z,84.25
2022-09-22T03:18:20.641Z,84.20
2022-09-22T03:19:23.424Z,84.13
2022-09-22T03:20:26.180Z,84.26
2022-09-22T03:21:28.854Z,84.61
2022-09-22T03:22:32.027Z,85.12
2022-09-22T03:23:34.603Z,85.09
2022-09-22T03:24:37.280Z,85.18
2022-09-22T03:25:40.047Z,85.43
2022-09-22T03:26:42.705Z,85.70
2022-09-22T03:27:45.410Z,85.87
2022-09-22T03:28:48.887Z,85.86
2022-09-22T03:29:51.582Z,85.74
2022-09-22T03:30:54.280Z,85.67
2022-09-22T03:31:57.004Z,85.92
2022-09-22T03:32:59.751Z,85.95
2022-09-22T03:34:02.363Z,85.90
2022-09-22T03:35:06.925Z,85.97
2022-09-22T03:36:09.530Z,86.16
2022-09-22T03:37:12.207Z,86.30
2022-09-22T03:38:14.894Z,86.34
2022-09-22T03:39:17.566Z,86.36
2022-09-22T03:40:21.737Z,86.47
2022-09-22T03:41:24.444Z,86.67
2022-09-22T03:42:27.049Z,86.38
2022-09-22T03:43:29.902Z,86.10
2022-09-22T03:44:32.654Z,86.21
2022-09-22T03:45:35.706Z,86.42
2022-09-22T03:46:38.362Z,86.71
2022-09-22T03:47:41.216Z,86.96
2022-09-22T03:48:45.275Z,87.12
2022-09-22T03:49:49.174Z,87.36
2022-09-22T03:50:51.922Z,87.36
2022-09-22T03:51:54.592Z,87.48
2022-09-22T03:52:57.992Z,87.55
2022-09-22T03:54:00.960Z,87.66
2022-09-22T03:55:04.030Z,87.71
2022-09-22T03:56:13.252Z,87.81
2022-09-22T03:57:15.997Z,88.09
2022-09-22T03:58:21.008Z,88.38
2022-09-22T03:59:23.719Z,88.51
2022-09-22T04:00:28.641Z,88.59
2022-09-22T04:01:31.766Z,88.49
2022-09-22T04:02:34.547Z,88.63
2022-09-22T04:03:38.066Z,88.71
2022-09-22T04:04:40.856Z,88.64
2022-09-22T04:05:49.904Z,88.60
2022-09-22T04:06:52.916Z,88.81
2022-09-22T04:07:56.076Z,88.90
2022-09-22T04:08:58.734Z,88.94
2022-09-22T04:10:02.322Z,88.77
2022-09-22T04:11:06.068Z,88.77
2022-09-22T04:12:09.010Z,88.78
2022-09-22T04:13:12.558Z,88.71
2022-09-22T04:14:15.131Z,88.75
2022-09-22T04:15:17.929Z,88.83
2022-09-22T04:16:21.325Z,88.76
2022-09-22T04:17:24.215Z,88.66
2022-09-22T04:18:27.156Z,88.62
2022-09-22T04:19:29.807Z,88.69
2022-09-22T04:20:32.841Z,88.44
2022-09-22T04:21:35.728Z,88.33
2022-09-22T04:22:38.976Z,88.36
2022-09-22T04:23:41.626Z,88.57
2022-09-22T04:24:44.386Z,88.74
2022-09-22T04:25:47.001Z,88.87
2022-09-22T04:27:08.537Z,89.06
2022-09-22T04:28:12.441Z,89.02
2022-09-22T04:29:14.985Z,88.71
2022-09-22T04:30:17.699Z,88.58
2022-09-22T04:31:20.365Z,88.44
2022-09-22T04:32:23.861Z,88.26
2022-09-22T04:33:26.701Z,87.93
2022-09-22T04:34:29.347Z,87.96
2022-09-22T04:35:32.611Z,88.24
2022-09-22T04:36:35.464Z,88.46
2022-09-22T04:37:38.270Z,88.50
2022-09-22T04:38:40.887Z,88.53
2022-09-22T04:39:43.565Z,88.58
2022-09-22T04:40:46.343Z,88.59
2022-09-22T04:41:49.074Z,88.53
2022-09-22T04:42:51.732Z,88.58
2022-09-22T04:43:54.250Z,88.70
2022-09-22T04:45:07.402Z,88.72
2022-09-22T04:46:10.099Z,88.87
2022-09-22T04:47:13.632Z,89.15
2022-09-22T04:48:17.029Z,89.25
2022-09-22T04:49:19.699Z,89.23
2022-09-22T04:50:23.757Z,89.38
2022-09-22T04:51:26.338Z,89.59
2022-09-22T04:52:29.594Z,89.63
2022-09-22T04:53:32.202Z,89.65
2022-09-22T04:54:34.898Z,89.73
2022-09-22T04:55:37.584Z,89.76
2022-09-22T04:56:40.293Z,89.86
2022-09-22T04:57:47.577Z,89.93
2022-09-22T04:58:50.254Z,89.85
2022-09-22T04:59:53.485Z,89.84
2022-09-22T05:00:56.301Z,89.81
2022-09-22T05:01:59.537Z,89.71
2022-09-22T05:03:07.549Z,89.81
2022-09-22T05:04:10.320Z,89.88
2022-09-22T05:05:13.400Z,90.08
2022-09-22T05:06:16.046Z,90.04
2022-09-22T05:07:18.699Z,89.97
2022-09-22T05:08:21.348Z,89.94
2022-09-22T05:09:24.051Z,89.92
2022-09-22T05:10:27.397Z,89.94
2022-09-22T05:11:31.211Z,90.09
2022-09-22T05:12:37.455Z,90.09
2022-09-22T05:13:41.258Z,89.98
2022-09-22T05:14:43.842Z,89.96
2022-09-22T05:15:46.678Z,90.05
2022-09-22T05:16:49.446Z,90.00
2022-09-22T05:17:54.267Z,89.92
2022-09-22T05:18:57.187Z,89.96
2022-09-22T05:19:59.801Z,90.10
2022-09-22T05:21:02.832Z,90.01
2022-09-22T05:22:05.519Z,89.89
2022-09-22T05:23:08.712Z,89.88
2022-09-22T05:24:11.356Z,89.85
2022-09-22T05:25:17.547Z,89.87
2022-09-22T05:26:20.313Z,89.93
2022-09-22T05:27:23.249Z,90.00
2022-09-22T05:28:25.831Z,89.90
2022-09-22T05:29:28.350Z,89.82
2022-09-22T05:30:31.266Z,89.78
2022-09-22T05:31:34.023Z,89.78
2022-09-22T05:32:36.771Z,89.81
2022-09-22T05:33:39.407Z,89.73
2022-09-22T05:34:42.280Z,89.77
2022-09-22T05:35:44.990Z,89.80
2022-09-22T05:36:47.583Z,89.81
2022-09-22T05:37:52.329Z,89.84
2022-09-22T05:38:55.018Z,89.88
2022-09-22T05:39:57.684Z,89.77
2022-09-22T05:41:00.396Z,89.52
2022-09-22T05:42:05.394Z,89.52
2022-09-22T05:43:11.542Z,89.54
2022-09-22T05:44:14.791Z,89.54
2022-09-22T05:45:18.657Z,89.60
2022-09-22T05:46:24.274Z,89.62
2022-09-22T05:47:27.041Z,89.60
2022-09-22T05:48:31.478Z,89.29
2022-09-22T05:49:34.586Z,88.95
2022-09-22T05:50:37.541Z,88.68
2022-09-22T05:51:40.186Z,88.42
2022-09-22T05:52:43.189Z,88.12
2022-09-22T05:53:45.857Z,87.98
2022-09-22T05:54:48.557Z,87.62
2022-09-22T05:55:51.401Z,87.34
2022-09-22T05:56:53.954Z,87.21
2022-09-22T05:57:57.614Z,86.98
2022-09-22T05:59:00.216Z,86.62
2022-09-22T06:00:05.477Z,86.23
2022-09-22T06:01:08.231Z,86.15
2022-09-22T06:02:25.191Z,85.48
2022-09-22T06:03:28.533Z,85.20
2022-09-22T06:04:31.541Z,85.13
2022-09-22T06:05:37.224Z,84.96
2022-09-22T06:06:40.302Z,84.72
2022-09-22T06:07:43.090Z,84.59
2022-09-22T06:08:48.885Z,84.26
2022-09-22T06:09:52.470Z,84.06
2022-09-22T06:10:55.002Z,83.96
2022-09-22T06:11:57.638Z,83.53
2022-09-22T06:13:08.453Z,83.31
2022-09-22T06:14:11.059Z,83.00
2022-09-22T06:15:13.681Z,82.56
2022-09-22T06:16:16.685Z,82.37
2022-09-22T06:17:19.610Z,82.32
2022-09-22T06:18:24.947Z,81.92
2022-09-22T06:19:29.568Z,81.02
2022-09-22T06:20:32.322Z,80.03
2022-09-22T06:21:35.281Z,79.92
2022-09-22T06:22:37.837Z,79.90
2022-09-22T06:23:42.961Z,79.89
2022-09-22T06:24:46.116Z,79.84
2022-09-22T06:25:48.827Z,79.84
2022-09-22T06:26:51.402Z,79.76
2022-09-22T06:28:08.314Z,78.98
2022-09-22T06:29:10.895Z,78.71
2022-09-22T06:30:13.963Z,78.41
2022-09-22T06:31:16.630Z,77.75
2022-09-22T06:32:19.678Z,77.79
2022-09-22T06:33:24.203Z,76.57
2022-09-22T06:34:27.466Z,75.19
2022-09-22T06:35:38.010Z,75.57
2022-09-22T06:36:45.582Z,76.00
2022-09-22T06:37:51.077Z,74.32
2022-09-22T06:38:54.446Z,74.19
2022-09-22T06:39:57.046Z,73.73
2022-09-22T06:41:03.060Z,74.00
2022-09-22T06:42:06.706Z,74.54
2022-09-22T06:43:19.324Z,74.92
2022-09-22T06:44:22.135Z,75.12
2022-09-22T06:45:27.006Z,75.58
2022-09-22T06:46:36.132Z,75.71
2022-09-22T06:47:38.940Z,75.46
2022-09-22T06:48:41.508Z,75.70
2022-09-22T06:49:44.193Z,75.53
2022-09-22T06:50:52.483Z,75.21
2022-09-22T06:51:55.313Z,75.36
2022-09-22T06:53:02.522Z,74.91
2022-09-22T06:54:06.604Z,74.82
2022-09-22T06:55:10.875Z,74.92
2022-09-22T06:56:13.510Z,74.56
2022-09-22T06:58:22.576Z,74.23
2022-09-22T06:59:25.546Z,74.03
2022-09-22T07:00:33.355Z,74.08
2022-09-22T07:01:36.435Z,73.38
2022-09-22T07:02:39.157Z,73.42
2022-09-22T07:03:42.821Z,73.06
2022-09-22T07:04:46.110Z,72.76
2022-09-22T07:05:56.629Z,72.88
2022-09-22T07:06:59.189Z,72.59
2022-09-22T07:08:02.105Z,72.80
2022-09-22T07:09:05.899Z,71.63
2022-09-22T07:10:09.123Z,71.25
2022-09-22T07:11:12.367Z,71.17
2022-09-22T07:12:15.565Z,69.53
2022-09-22T07:13:18.658Z,68.90
2022-09-22T07:14:22.793Z,69.45
2022-09-22T07:15:25.592Z,69.48
2022-09-22T07:16:28.278Z,70.21
2022-09-22T07:17:32.925Z,70.41
2022-09-22T07:18:40.430Z,70.49
2022-09-22T07:19:43.122Z,69.50
2022-09-22T07:20:45.978Z,68.23
2022-09-22T07:21:48.619Z,68.56
2022-09-22T07:23:00.390Z,68.61
2022-09-22T07:24:04.250Z,67.94
2022-09-22T07:25:08.816Z,68.23
2022-09-22T07:26:16.259Z,68.77
2022-09-22T07:27:26.324Z,69.60
2022-09-22T07:28:29.487Z,70.55
2022-09-22T07:29:32.342Z,71.00
2022-09-22T07:30:38.619Z,71.08
2022-09-22T07:31:42.119Z,70.91
2022-09-22T07:32:44.791Z,71.41
2022-09-22T07:33:47.420Z,72.18
2022-09-22T07:34:50.163Z,72.25
2022-09-22T07:36:14.171Z,72.02
2022-09-22T07:37:16.894Z,70.99
2022-09-22T07:38:20.833Z,70.68
2022-09-22T07:39:25.265Z,70.10
2022-09-22T07:40:28.009Z,70.66
2022-09-22T07:41:32.576Z,70.27
2022-09-22T07:42:35.266Z,69.69
2022-09-22T07:43:38.890Z,70.07
2022-09-22T07:45:00.102Z,70.47
2022-09-22T07:46:02.995Z,69.65
2022-09-22T07:47:06.225Z,69.60
2022-09-22T07:48:27.310Z,69.71
2022-09-22T07:49:30.139Z,69.44
2022-09-22T07:50:32.964Z,69.79
2022-09-22T07:51:35.696Z,70.23
2022-09-22T07:52:38.399Z,67.75
2022-09-22T07:53:41.181Z,67.70
2022-09-22T07:54:43.857Z,68.11
2022-09-22T07:55:48.374Z,68.72
2022-09-22T07:56:58.889Z,68.54
2022-09-22T07:58:02.135Z,67.54
2022-09-22T07:59:07.664Z,68.09
2022-09-22T08:00:11.252Z,68.09
2022-09-22T08:01:14.839Z,67.60
2022-09-22T08:02:17.522Z,68.11
2022-09-22T08:03:20.236Z,68.84
2022-09-22T08:04:23.996Z,69.42
2022-09-22T08:05:28.885Z,68.29
2022-09-22T08:06:32.404Z,68.20
2022-09-22T08:07:36.473Z,67.72
2022-09-22T08:08:40.167Z,67.60
2022-09-22T08:09:43.057Z,65.80
2022-09-22T08:10:45.746Z,65.19
2022-09-22T08:11:53.413Z,65.20
2022-09-22T08:12:58.240Z,64.47
2022-09-22T08:14:04.937Z,65.85
2022-09-22T08:15:07.918Z,66.22
2022-09-22T08:16:11.780Z,66.09
2022-09-22T08:17:14.419Z,64.53
2022-09-22T08:18:17.090Z,64.60
2022-09-22T08:19:25.174Z,64.75
2022-09-22T08:20:29.350Z,64.98
2022-09-22T08:21:35.515Z,65.26
2022-09-22T08:22:38.276Z,64.50
2022-09-22T08:23:41.944Z,64.10
2022-09-22T08:24:45.797Z,64.06
2022-09-22T08:25:50.829Z,64.75
2022-09-22T08:26:56.387Z,64.82
2022-09-22T08:28:01.295Z,64.86
2022-09-22T08:29:06.024Z,64.93
2022-09-22T08:30:09.947Z,63.96
2022-09-22T08:31:15.387Z,63.55
2022-09-22T08:32:18.465Z,63.05
2022-09-22T08:33:21.515Z,62.59
2022-09-22T08:34:24.301Z,62.51
2022-09-22T08:35:34.596Z,62.25
2022-09-22T08:36:48.070Z,62.28
2022-09-22T08:37:54.977Z,61.56
2022-09-22T08:39:02.240Z,59.79
2022-09-22T08:40:06.467Z,59.09
2022-09-22T08:41:18.359Z,59.71
2022-09-22T08:42:23.417Z,60.89
2022-09-22T08:43:29.858Z,61.15
2022-09-22T08:44:40.203Z,59.39
2022-09-22T08:45:46.377Z,57.69
2022-09-22T08:46:49.697Z,58.95
2022-09-22T08:48:15.955Z,59.61
2022-09-22T08:50:02.099Z,58.92
2022-09-22T08:51:39.560Z,57.74
2022-09-22T08:52:55.918Z,55.51
2022-09-22T08:54:03.248Z,55.75
2022-09-22T08:55:16.159Z,55.82
2022-09-22T08:56:54.789Z,56.71
2022-09-22T08:58:12.828Z,57.21
2022-09-22T08:59:19.097Z,55.36
2022-09-22T09:00:23.510Z,56.20
2022-09-22T09:01:41.156Z,54.42
2022-09-22T09:03:32.734Z,53.82
2022-09-22T09:04:53.889Z,54.50
2022-09-22T09:06:12.909Z,56.31
2022-09-22T09:07:33.408Z,56.11
2022-09-22T09:09:05.377Z,56.06
2022-09-22T09:10:15.747Z,55.98
2022-09-22T09:11:46.439Z,55.84
2022-09-22T09:13:12.821Z,55.75
2022-09-22T09:14:30.840Z,57.03
2022-09-22T09:15:55.903Z,55.76
2022-09-22T09:17:08.181Z,56.34
2022-09-22T09:18:16.479Z,56.93
2022-09-22T09:19:50.707Z,56.76
2022-09-22T09:20:55.259Z,57.01
2022-09-22T09:22:02.345Z,56.75
2022-09-22T09:23:13.385Z,57.21
2022-09-22T09:25:53.946Z,58.11
2022-09-22T09:27:01.575Z,59.19
2022-09-22T09:28:32.274Z,56.50
2022-09-22T09:29:44.744Z,55.63
2022-09-22T09:30:54.476Z,56.52
2022-09-22T09:32:02.466Z,57.21
2022-09-22T09:33:17.896Z,58.12
2022-09-22T09:34:24.557Z,58.89
2022-09-22T09:35:45.434Z,58.50
2022-09-22T09:37:05.364Z,58.79
2022-09-22T09:38:14.890Z,58.62
2022-09-22T09:39:25.337Z,59.00
2022-09-22T09:40:28.483Z,58.77
2022-09-22T09:41:32.855Z,58.48
2022-09-22T09:42:37.025Z,58.72
2022-09-22T09:43:43.435Z,59.11
2022-09-22T09:44:53.768Z,59.45
2022-09-22T09:46:19.523Z,60.02
2022-09-22T09:47:33.084Z,60.12
2022-09-22T09:48:38.950Z,59.87
2022-09-22T09:49:41.683Z,60.02
2022-09-22T09:50:44.417Z,60.01
2022-09-22T09:52:00.288Z,60.00
2022-09-22T09:53:03.011Z,61.83
2022-09-22T09:54:13.171Z,61.72
2022-09-22T09:55:27.479Z,61.59
2022-09-22T09:56:31.442Z,62.50
2022-09-22T09:57:34.180Z,62.57
2022-09-22T09:59:20.430Z,63.34
2022-09-22T10:00:32.613Z,63.22
2022-09-22T10:01:35.472Z,62.87
2022-09-22T10:02:49.134Z,63.40
2022-09-22T10:03:54.977Z,63.05
2022-09-22T10:05:01.938Z,60.89
2022-09-22T10:06:10.492Z,59.83
2022-09-22T10:07:27.243Z,60.66
2022-09-22T10:08:35.079Z,60.65
2022-09-22T10:09:37.850Z,57.96
2022-09-22T10:10:41.436Z,57.72
2022-09-22T10:11:58.120Z,55.54
2022-09-22T10:13:00.734Z,56.41
2022-09-22T10:14:03.957Z,56.43
2022-09-22T10:15:25.654Z,56.69
2022-09-22T10:16:30.883Z,56.97
2022-09-22T10:17:41.768Z,54.03
2022-09-22T10:18:44.415Z,53.78
2022-09-22T10:19:47.080Z,53.78
2022-09-22T10:21:03.969Z,54.28
2022-09-22T10:22:21.984Z,52.70
2022-09-22T10:23:27.809Z,52.66
2022-09-22T10:24:33.592Z,52.40
2022-09-22T10:25:36.288Z,52.61
2022-09-22T10:26:56.167Z,52.89
2022-09-22T10:28:05.251Z,51.47
2022-09-22T10:29:13.881Z,50.24
2022-09-22T10:30:24.289Z,50.06
2022-09-22T10:31:27.714Z,49.93
2022-09-22T10:32:31.181Z,48.81
2022-09-22T10:33:34.048Z,48.75
2022-09-22T10:34:48.347Z,48.62
2022-09-22T10:36:12.168Z,49.07
2022-09-22T10:37:20.091Z,50.23
2022-09-22T10:38:27.211Z,50.29
2022-09-22T10:39:42.152Z,49.83
2022-09-22T10:40:50.164Z,50.49
2022-09-22T10:41:53.340Z,50.81
2022-09-22T10:42:58.527Z,51.51
2022-09-22T10:44:27.360Z,49.17
2022-09-22T10:45:48.242Z,50.39
2022-09-22T10:47:03.507Z,48.73
2022-09-22T10:48:26.817Z,49.00
2022-09-22T10:49:32.109Z,47.29
2022-09-22T10:50:59.249Z,47.25
2022-09-22T10:52:25.681Z,48.21
2022-09-22T10:54:06.530Z,49.87
2022-09-22T10:55:09.323Z,49.39
2022-09-22T10:56:24.048Z,50.05
2022-09-22T10:57:58.021Z,49.48
2022-09-22T10:59:13.925Z,50.25
2022-09-22T11:00:23.780Z,50.95
2022-09-22T11:01:49.525Z,51.60
2022-09-22T11:03:10.761Z,51.13
2022-09-22T11:04:33.200Z,50.90
2022-09-22T11:06:20.013Z,53.65
2022-09-22T11:07:54.731Z,52.88
2022-09-22T11:09:50.746Z,50.23
2022-09-22T11:11:16.537Z,49.26
2022-09-22T11:12:19.402Z,50.48
2022-09-22T11:13:59.975Z,49.39
2022-09-22T11:15:11.593Z,47.73
2022-09-22T11:16:28.209Z,48.10
2022-09-22T11:17:57.334Z,47.80
2022-09-22T11:19:21.542Z,47.92
2022-09-22T11:20:41.352Z,47.10
2022-09-22T11:22:00.306Z,45.78
2022-09-22T11:23:30.790Z,44.42
2022-09-22T11:24:38.414Z,44.83
2022-09-22T11:25:44.242Z,44.05
2022-09-22T11:26:59.113Z,43.40
2022-09-22T11:28:09.322Z,44.33
2022-09-22T11:29:21.201Z,44.53
2022-09-22T11:30:24.301Z,45.05
2022-09-22T11:31:38.624Z,46.36
2022-09-22T11:33:12.041Z,46.35
2022-09-22T11:34:51.889Z,46.44
2022-09-22T11:36:13.381Z,45.60
2022-09-22T11:37:29.740Z,46.33
2022-09-22T11:38:38.873Z,46.17
2022-09-22T11:40:00.351Z,47.13
2022-09-22T11:41:31.809Z,47.55
2022-09-22T11:43:00.619Z,45.81
2022-09-22T11:44:09.622Z,44.08
2022-09-22T11:45:36.892Z,44.51
2022-09-22T11:46:49.408Z,44.85
2022-09-22T11:48:10.813Z,44.54
2022-09-22T11:49:19.691Z,45.09
2022-09-22T11:50:32.048Z,44.85
2022-09-22T11:52:26.360Z,43.56
2022-09-22T11:53:53.522Z,44.92
2022-09-22T11:55:00.429Z,44.91
2022-09-22T11:56:21.741Z,45.07
2022-09-22T11:57:31.647Z,45.13
2022-09-22T11:58:41.161Z,45.99
2022-09-22T12:00:06.081Z,45.14
2022-09-22T12:01:18.403Z,43.99
2022-09-22T12:02:27.363Z,44.53
2022-09-22T12:03:40.844Z,45.59
2022-09-22T12:04:52.929Z,45.63
2022-09-22T12:06:04.092Z,46.73
2022-09-22T12:07:20.001Z,48.04
2022-09-22T12:08:29.247Z,47.47
2022-09-22T12:09:52.161Z,47.87
2022-09-22T12:10:56.621Z,48.49
2022-09-22T12:12:02.382Z,49.03
2022-09-22T12:13:11.521Z,49.43
2022-09-22T12:14:16.152Z,49.11
2022-09-22T12:15:31.571Z,48.87
2022-09-22T12:16:48.800Z,49.52
2022-09-22T12:18:27.372Z,51.02
2022-09-22T12:19:32.933Z,50.73
2022-09-22T12:20:49.670Z,49.86
2022-09-22T12:22:11.170Z,50.14
2022-09-22T12:23:37.380Z,49.66
2022-09-22T12:24:40.261Z,49.25
2022-09-22T12:25:54.600Z,48.39
2022-09-22T12:26:57.560Z,48.26
2022-09-22T12:28:00.290Z,47.40
2022-09-22T12:29:28.283Z,48.19
2022-09-22T12:30:31.653Z,47.54
2022-09-22T12:31:36.964Z,47.67
2022-09-22T12:32:42.944Z,46.37
2022-09-22T12:34:05.915Z,46.29
2022-09-22T12:35:19.431Z,46.86
2022-09-22T12:36:38.410Z,47.61
2022-09-22T12:37:41.112Z,48.38
2022-09-22T12:38:45.920Z,48.72
2022-09-22T12:39:49.647Z,49.58
2022-09-22T12:40:57.911Z,48.85
2022-09-22T12:42:03.384Z,48.87
2022-09-22T12:43:06.262Z,49.44
2022-09-22T12:44:13.409Z,50.64
2022-09-22T12:45:19.704Z,50.61
2022-09-22T12:46:29.169Z,50.72
2022-09-22T12:47:37.641Z,48.79
2022-09-22T12:48:46.130Z,49.74
2022-09-22T12:49:56.503Z,49.34
2022-09-22T12:51:34.950Z,49.62
2022-09-22T12:52:40.444Z,48.22
2022-09-22T12:53:44.029Z,48.97
2022-09-22T12:54:47.109Z,50.30
2022-09-22T12:55:51.688Z,50.50
2022-09-22T12:56:56.480Z,51.27
2022-09-22T12:58:03.813Z,51.44
2022-09-22T12:59:38.290Z,51.24
2022-09-22T13:00:43.430Z,50.92
2022-09-22T13:01:46.258Z,50.57
2022-09-22T13:02:50.521Z,49.73
2022-09-22T13:04:05.662Z,49.31
2022-09-22T13:05:12.013Z,50.19
2022-09-22T13:06:23.351Z,50.77
2022-09-22T13:07:42.360Z,50.98
2022-09-22T13:08:45.088Z,51.08
2022-09-22T13:09:47.842Z,51.13
2022-09-22T13:10:55.262Z,51.73
2022-09-22T13:12:13.347Z,52.33
2022-09-22T13:13:45.587Z,52.13
2022-09-22T13:15:01.450Z,50.48
2022-09-22T13:16:06.145Z,51.52
2022-09-22T13:17:41.235Z,52.74
2022-09-22T13:18:59.187Z,53.32
2022-09-22T13:20:14.725Z,53.39
2022-09-22T13:21:19.095Z,54.55
2022-09-22T13:22:21.763Z,55.07
2022-09-22T13:23:24.808Z,54.54
2022-09-22T13:24:28.716Z,54.96
2022-09-22T13:25:32.545Z,55.21
2022-09-22T13:26:37.871Z,55.22
2022-09-22T13:27:41.021Z,56.04
2022-09-22T13:28:43.893Z,56.66
2022-09-22T13:29:59.235Z,56.92
2022-09-22T13:31:09.769Z,56.99
2022-09-22T13:32:21.943Z,57.08
2022-09-22T13:33:27.027Z,57.01
2022-09-22T13:34:31.663Z,57.64
2022-09-22T13:35:41.113Z,58.52
2022-09-22T13:36:45.095Z,59.09
2022-09-22T13:37:48.893Z,60.08
2022-09-22T13:38:55.398Z,60.57
2022-09-22T13:40:00.221Z,60.92
2022-09-22T13:41:15.045Z,60.77
2022-09-22T13:42:34.620Z,60.37
2022-09-22T13:43:39.451Z,59.27
2022-09-22T13:44:47.973Z,58.50
2022-09-22T13:45:52.045Z,57.80
2022-09-22T13:46:56.958Z,57.43
2022-09-22T13:48:09.777Z,56.78
2022-09-22T13:49:44.718Z,55.99
2022-09-22T13:51:00.747Z,55.42
2022-09-22T13:52:09.793Z,55.44
2022-09-22T13:53:18.182Z,55.42
2022-09-22T13:54:27.640Z,56.10
2022-09-22T13:55:36.298Z,57.28
2022-09-22T13:56:39.495Z,57.75
2022-09-22T13:57:43.011Z,57.83
2022-09-22T13:58:48.202Z,57.73
2022-09-22T13:59:52.692Z,57.40
2022-09-22T14:01:12.956Z,57.08
2022-09-22T14:02:22.758Z,57.10
2022-09-22T14:03:26.882Z,57.59
2022-09-22T14:04:29.851Z,57.34
2022-09-22T14:05:36.021Z,57.54
2022-09-22T14:06:39.078Z,57.34
2022-09-22T14:08:00.923Z,57.91
2022-09-22T14:09:11.571Z,56.52
2022-09-22T14:10:19.875Z,56.08
2022-09-22T14:11:31.833Z,56.13
2022-09-22T14:12:35.055Z,55.04
2022-09-22T14:13:55.311Z,55.10
2022-09-22T14:15:37.368Z,55.47
2022-09-22T14:16:50.532Z,55.29
2022-09-22T14:17:53.661Z,54.92
2022-09-22T14:18:59.435Z,55.52
2022-09-22T14:20:05.557Z,56.49
2022-09-22T14:21:11.167Z,56.50
2022-09-22T14:22:18.174Z,55.62
2022-09-22T14:23:31.053Z,55.21
2022-09-22T14:24:37.991Z,55.85
2022-09-22T14:25:40.870Z,56.28
2022-09-22T14:26:52.606Z,56.70
2022-09-22T14:28:00.051Z,56.66
2022-09-22T14:29:25.612Z,56.75
2022-09-22T14:30:31.400Z,57.66
2022-09-22T14:31:34.542Z,57.45
2022-09-22T14:32:47.464Z,57.69
2022-09-22T14:33:50.641Z,58.10
2022-09-22T14:34:59.040Z,58.21
2022-09-22T14:36:06.071Z,57.82
2022-09-22T14:37:32.454Z,57.65
2022-09-22T14:38:47.505Z,57.34
2022-09-22T14:39:56.590Z,57.30
2022-09-22T14:41:01.055Z,57.25
2022-09-22T14:42:17.013Z,58.34
2022-09-22T14:43:24.382Z,59.48
2022-09-22T14:44:45.975Z,58.29
2022-09-22T14:46:08.684Z,57.95
2022-09-22T14:47:26.967Z,56.63
2022-09-22T14:48:39.770Z,56.84